首页
METAR-TAF:

METAR-TAF

机场 :

乔莫·肯雅塔国际机场

奈洛比, 肯尼亚

纬度: 01-19S, 经度: 036-55E, 海拔: 1624米

当前天气观测

该预报发布于30分钟前的01:30 UTC
风速5节,风向东北
温度 17°C
湿度 77%
气压 1021 hPa
能见度10公里或以上
少量云层高于1900英尺

METAR: HKJK 230130Z 04005KT 9999 FEW019 17/13 Q1021 NOSIG

时间: 05:00 (02:00 UTC)

预报

该预报发布于9小时和0分钟前的17:00 UTC
预报有效从22日的 18点(UTC)到 23日的 24点(UTC)
风速5节,风向
能见度10公里或以上
散云层高于1900英尺
成为
从 23日的 08点(UTC)到 23日的 11点(UTC)
风速10节,风向东转东北
少量云层高于2600英尺, 积雨云.
散云层高于2700英尺
成为
从 23日的 20点(UTC)到 23日的 23点(UTC)
风速5节,风向
散云层高于1800英尺

TAF: HKJK 221700Z 2218/2324 36005KT 9999 SCT019 BECMG 2308/2311 06010KT FEW026CB SCT027 BECMG 2320/2323 35005KT SCT018

超过4000个机场的气象观测和天气预报(METAR&TAF报告)。

可查询的气象台以黄色和红色小点在地图上表示。

将鼠标移到小点上方,可查看气象台名称。

然后点击查看天气观测和预报。

如需切换地图:点击带黑十字的绿色按钮放大地图;点击带横线的绿色按钮缩小地图;或者点击绿色箭头查看邻近地区的地图。


METAR-TAF: